Time;durP1;ratioP1;P1;durP2;ratioP2;P2;SDS_P1;SDS_P2;PMS_P1;PMS_P2;Temp;Humidity;BMP_temperature;BMP_pressure;BME280_temperature;BME280_humidity;BME280_pressure;Samples;Min_cycle;Max_cycle;Signal;HPM_P1;HPM_P2
2022/04/08 00:01:56;;;;;;;10.65;4.53;;;;;;;6.22;86.82;99138.59;6192586;23;20021;-80
2022/04/08 00:04:23;;;;;;;12.15;5.20;;;;;;;6.18;86.53;99147.69;6192537;23;20032;-79
2022/04/08 00:06:50;;;;;;;11.32;4.57;;;;;;;6.30;84.71;99148.97;6190687;23;20048;-79
2022/04/08 00:09:17;;;;;;;10.55;4.20;;;;;;;6.38;84.85;99148.16;6188739;23;20057;-79
2022/04/08 00:11:44;;;;;;;8.13;4.40;;;;;;;6.31;85.62;99157.56;6191048;23;20052;-80
2022/04/08 00:14:11;;;;;;;10.15;3.97;;;;;;;6.24;85.74;99162.63;6189829;23;20025;-79
2022/04/08 00:16:38;;;;;;;9.48;4.50;;;;;;;6.17;85.60;99163.44;6189151;23;20025;-79
2022/04/08 00:19:05;;;;;;;7.30;4.57;;;;;;;6.09;85.99;99168.66;6188247;23;20021;-80
2022/04/08 00:21:32;;;;;;;9.18;4.88;;;;;;;6.01;86.75;99174.66;6189069;23;20096;-79
2022/04/08 00:23:59;;;;;;;9.82;5.07;;;;;;;5.93;87.15;99187.63;6189703;23;20024;-78
2022/04/08 00:26:26;;;;;;;14.27;6.07;;;;;;;5.90;86.90;99185.34;6189382;23;20109;-79
2022/04/08 00:28:53;;;;;;;12.73;5.82;;;;;;;5.89;87.00;99186.31;6190434;23;20107;-77
2022/04/08 00:31:19;;;;;;;8.23;5.30;;;;;;;5.85;87.23;99188.41;6189249;23;20355;-77
2022/04/08 00:33:46;;;;;;;7.13;4.97;;;;;;;5.82;87.51;99193.91;6189034;23;20073;-78
2022/04/08 00:36:12;;;;;;;10.95;5.53;;;;;;;5.80;86.90;99201.03;6189664;23;20017;-79
2022/04/08 00:38:39;;;;;;;6.70;4.68;;;;;;;5.80;86.77;99205.41;6188962;23;20092;-78
2022/04/08 00:41:07;;;;;;;6.20;4.57;;;;;;;5.71;86.78;99202.00;6190535;23;20028;-78
2022/04/08 00:43:36;;;;;;;9.77;5.32;;;;;;;5.75;86.26;99210.28;6189271;23;20059;-77
2022/04/08 00:46:04;;;;;;;8.20;5.10;;;;;;;5.73;86.18;99207.03;6188752;23;20025;-78
2022/04/08 00:48:31;;;;;;;8.63;5.80;;;;;;;5.62;87.80;99214.16;6191243;23;20096;-79
2022/04/08 00:50:58;;;;;;;8.93;6.57;;;;;;;5.66;87.22;99212.06;6196016;23;20048;-79
2022/04/08 00:53:26;;;;;;;15.95;9.48;;;;;;;5.64;87.47;99221.78;6193631;23;20063;-78
2022/04/08 00:55:52;;;;;;;11.57;7.63;;;;;;;5.67;87.89;99217.06;6192770;23;20058;-80
2022/04/08 00:58:21;;;;;;;12.70;7.53;;;;;;;5.73;87.28;99232.97;6194823;23;20389;-80
2022/04/08 01:00:48;;;;;;;15.43;6.35;;;;;;;5.76;86.41;99227.47;6191392;23;20025;-78
2022/04/08 01:03:14;;;;;;;12.23;6.68;;;;;;;5.72;85.61;99226.97;6190336;23;20096;-78
2022/04/08 01:05:41;;;;;;;9.50;7.32;;;;;;;5.70;86.95;99238.47;6189662;23;20063;-79
2022/04/08 01:08:10;;;;;;;11.35;7.28;;;;;;;5.70;86.65;99246.28;6188790;23;20033;-79
2022/04/08 01:10:38;;;;;;;16.45;8.15;;;;;;;5.81;86.11;99240.78;6187646;23;20039;-78
2022/04/08 01:13:05;;;;;;;11.80;7.03;;;;;;;5.79;85.96;99255.72;6189247;23;20088;-79
2022/04/08 01:15:33;;;;;;;10.30;5.85;;;;;;;5.79;85.70;99261.72;6189403;23;20025;-78
2022/04/08 01:18:00;;;;;;;9.13;5.95;;;;;;;5.74;85.15;99268.34;6189425;23;20068;-79
2022/04/08 01:20:27;;;;;;;12.02;5.28;;;;;;;5.62;86.29;99260.88;6189622;23;20391;-79
2022/04/08 01:22:53;;;;;;;11.38;5.20;;;;;;;5.55;86.68;99274.63;6189556;23;20032;-78
2022/04/08 01:25:21;;;;;;;7.90;5.40;;;;;;;5.50;86.54;99267.31;6188999;23;20088;-78
2022/04/08 01:27:48;;;;;;;8.32;5.25;;;;;;;5.47;86.79;99270.22;6190558;23;20052;-78
2022/04/08 01:30:16;;;;;;;12.70;5.95;;;;;;;5.52;86.78;99267.16;6189924;23;20021;-78
2022/04/08 01:32:43;;;;;;;9.73;5.78;;;;;;;5.50;86.64;99271.69;6191028;23;20028;-78
2022/04/08 01:35:10;;;;;;;13.00;6.35;;;;;;;5.49;86.48;99275.25;6192206;23;20020;-79
2022/04/08 01:37:36;;;;;;;12.65;7.82;;;;;;;5.47;87.38;99288.38;6190655;23;20105;-78
2022/04/08 01:40:04;;;;;;;18.85;8.07;;;;;;;5.45;87.60;99295.50;6190745;23;20065;-80
2022/04/08 01:42:32;;;;;;;16.70;8.63;;;;;;;5.42;87.85;99295.81;6209167;23;20012;-79
2022/04/08 01:44:58;;;;;;;12.68;8.45;;;;;;;5.29;88.33;99301.41;6211377;23;20092;-79
2022/04/08 01:47:25;;;;;;;13.45;8.30;;;;;;;5.34;87.33;99299.19;6212330;23;20020;-78
2022/04/08 01:49:52;;;;;;;18.20;8.90;;;;;;;5.26;88.22;99303.50;6200439;23;20048;-78
2022/04/08 01:52:18;;;;;;;14.05;7.80;;;;;;;5.24;87.89;99302.84;6190709;23;20028;-78
2022/04/08 01:54:45;;;;;;;10.38;6.60;;;;;;;5.25;87.43;99304.47;6190930;23;20051;-79
2022/04/08 01:57:12;;;;;;;10.85;6.60;;;;;;;5.22;88.05;99302.19;6189508;23;20059;-77
2022/04/08 01:59:39;;;;;;;14.20;6.00;;;;;;;5.29;87.74;99304.00;6189997;23;20024;-78
2022/04/08 02:02:06;;;;;;;12.55;6.00;;;;;;;5.25;87.83;99305.28;6190455;23;20025;-79
2022/04/08 02:04:35;;;;;;;13.80;6.80;;;;;;;5.30;88.59;99315.19;6189654;23;20025;-78
2022/04/08 02:07:02;;;;;;;9.63;6.90;;;;;;;5.37;88.42;99313.63;6190995;23;20017;-77
2022/04/08 02:09:29;;;;;;;12.60;6.47;;;;;;;5.44;88.15;99319.00;6191920;23;20048;-78
2022/04/08 02:11:55;;;;;;;12.70;6.75;;;;;;;5.46;87.80;99317.06;6193550;23;20043;-78
2022/04/08 02:14:22;;;;;;;12.02;7.85;;;;;;;5.54;88.25;99320.53;6191278;23;20059;-77
2022/04/08 02:16:50;;;;;;;13.88;8.15;;;;;;;5.65;86.78;99311.66;6190220;23;20091;-78
2022/04/08 02:19:17;;;;;;;14.30;8.25;;;;;;;5.71;86.29;99325.75;6190631;23;20059;-79
2022/04/08 02:21:44;;;;;;;13.52;7.57;;;;;;;5.76;86.25;99329.50;6190307;23;20059;-79
2022/04/08 02:24:13;;;;;;;13.73;7.45;;;;;;;5.70;86.11;99342.28;6190006;23;20049;-79
2022/04/08 02:26:40;;;;;;;16.05;7.65;;;;;;;5.68;86.49;99340.66;6191107;23;20017;-80
2022/04/08 02:29:07;;;;;;;13.07;7.68;;;;;;;5.65;86.53;99341.00;6188339;23;20060;-80
2022/04/08 02:31:33;;;;;;;14.95;8.40;;;;;;;5.68;85.89;99352.84;6187260;23;20103;-79
2022/04/08 02:34:01;;;;;;;14.77;8.70;;;;;;;5.63;87.02;99349.91;6186963;23;20310;-79
2022/04/08 02:36:28;;;;;;;13.55;7.75;;;;;;;5.64;86.59;99348.94;6188422;23;20028;-79
2022/04/08 02:38:54;;;;;;;12.52;7.00;;;;;;;5.59;86.33;99352.00;6187805;23;20032;-78
2022/04/08 02:41:21;;;;;;;12.68;6.93;;;;;;;5.55;86.52;99363.66;6190085;23;20083;-80
2022/04/08 02:43:48;;;;;;;12.38;7.40;;;;;;;5.55;86.21;99353.28;6188917;23;20108;-80
2022/04/08 02:46:15;;;;;;;11.18;6.65;;;;;;;5.53;85.78;99352.63;6189322;23;20027;-79
2022/04/08 02:48:41;;;;;;;10.82;6.82;;;;;;;5.51;86.18;99354.56;6187689;23;20032;-80
2022/04/08 02:51:10;;;;;;;12.02;6.35;;;;;;;5.41;86.61;99366.81;6189847;23;20052;-80
2022/04/08 02:53:36;;;;;;;13.10;7.03;;;;;;;5.41;87.40;99356.44;6188357;23;20025;-80
2022/04/08 02:56:03;;;;;;;9.80;6.38;;;;;;;5.32;88.27;99365.16;6189568;23;20085;-81
2022/04/08 02:58:30;;;;;;;10.85;6.38;;;;;;;5.31;86.96;99363.50;6190227;23;20073;-81
2022/04/08 03:00:59;;;;;;;10.60;6.22;;;;;;;5.20;86.89;99356.00;6191256;23;20078;-79
2022/04/08 03:03:27;;;;;;;10.65;5.97;;;;;;;5.09;88.20;99367.44;6190306;23;20483;-80
2022/04/08 03:05:53;;;;;;;7.93;5.32;;;;;;;5.02;88.22;99366.41;6190587;23;20025;-80
2022/04/08 03:08:22;;;;;;;9.35;4.82;;;;;;;4.95;89.11;99371.38;6190925;23;20048;-80
2022/04/08 03:10:49;;;;;;;13.70;5.53;;;;;;;4.89;88.62;99376.34;6192739;23;20025;-79
2022/04/08 03:13:15;;;;;;;11.32;5.13;;;;;;;4.84;88.93;99379.41;6190866;23;20026;-78
2022/04/08 03:15:42;;;;;;;9.00;4.97;;;;;;;4.82;88.94;99368.38;6192754;23;20024;-78
2022/04/08 03:18:09;;;;;;;10.77;4.63;;;;;;;4.77;89.00;99365.41;6190467;23;20037;-80
2022/04/08 03:20:35;;;;;;;9.55;4.88;;;;;;;4.76;89.41;99366.38;6190205;23;20029;-80
2022/04/08 03:23:02;;;;;;;9.10;4.97;;;;;;;4.71;89.08;99366.03;6190987;23;20025;-80
2022/04/08 03:25:30;;;;;;;10.52;5.13;;;;;;;4.71;89.60;99357.44;6189940;23;20104;-79
2022/04/08 03:27:56;;;;;;;13.52;4.97;;;;;;;4.75;88.98;99369.91;6189521;23;20052;-79
2022/04/08 03:30:24;;;;;;;7.97;5.47;;;;;;;4.72;89.20;99364.25;6188711;23;20097;-80
2022/04/08 03:32:51;;;;;;;9.52;5.60;;;;;;;4.69;89.82;99365.38;6189191;23;20470;-79
2022/04/08 03:35:17;;;;;;;10.25;5.80;;;;;;;4.72;89.95;99369.44;6189165;23;20051;-80
2022/04/08 03:37:44;;;;;;;9.82;6.00;;;;;;;4.69;90.28;99365.38;6188982;23;20248;-79
2022/04/08 03:40:12;;;;;;;10.55;6.82;;;;;;;4.60;90.96;99366.25;6188861;23;20052;-80
2022/04/08 03:42:40;;;;;;;12.45;7.75;;;;;;;4.60;91.70;99371.44;6190106;23;20414;-79
2022/04/08 03:45:08;;;;;;;17.48;10.45;;;;;;;4.60;91.00;99385.19;6194911;23;20052;-80
2022/04/08 03:47:34;;;;;;;18.95;12.15;;;;;;;4.66;92.24;99391.56;6196088;23;20049;-79
2022/04/08 03:50:01;;;;;;;25.70;13.52;;;;;;;4.59;92.19;99395.72;6194985;23;20055;-79
2022/04/08 03:52:32;;;;;;;21.50;13.60;;;;;;;4.69;92.35;99403.41;6191620;23;20343;-78
2022/04/08 03:54:59;;;;;;;21.08;13.35;;;;;;;4.66;92.52;99407.94;6193081;23;20061;-79
2022/04/08 03:57:26;;;;;;;17.35;12.60;;;;;;;4.64;92.65;99409.84;6194549;23;20040;-80
2022/04/08 03:59:54;;;;;;;17.80;10.95;;;;;;;4.79;93.13;99417.09;6195459;23;20055;-80
2022/04/08 04:02:20;;;;;;;17.08;10.52;;;;;;;4.88;92.10;99418.78;6195418;23;20021;-81
2022/04/08 04:04:49;;;;;;;13.70;10.27;;;;;;;4.93;91.29;99426.94;6195988;23;20021;-78
2022/04/08 04:07:15;;;;;;;16.35;10.43;;;;;;;4.87;91.79;99424.94;6195415;23;20061;-81
2022/04/08 04:09:42;;;;;;;15.25;10.98;;;;;;;4.96;92.23;99426.66;6190014;23;20059;-80
2022/04/08 04:12:09;;;;;;;17.30;11.10;;;;;;;4.96;91.76;99431.81;6190437;23;20067;-80
2022/04/08 04:14:36;;;;;;;16.20;10.60;;;;;;;4.94;91.04;99429.38;6190102;23;20057;-80
2022/04/08 04:17:05;;;;;;;18.05;10.55;;;;;;;5.05;91.60;99435.31;6189983;23;20017;-81
2022/04/08 04:19:31;;;;;;;15.20;9.95;;;;;;;5.03;92.07;99434.63;6189814;23;20108;-81
2022/04/08 04:21:58;;;;;;;19.00;9.70;;;;;;;4.95;91.97;99441.38;6190511;23;20096;-81
2022/04/08 04:24:24;;;;;;;16.08;10.30;;;;;;;4.98;91.95;99437.69;6191829;23;20100;-80
2022/04/08 04:26:51;;;;;;;15.90;10.10;;;;;;;4.92;91.94;99449.44;6191561;23;20075;-81
2022/04/08 04:29:18;;;;;;;15.82;10.02;;;;;;;4.91;91.57;99442.63;6191617;23;20060;-80
2022/04/08 04:31:45;;;;;;;20.30;9.20;;;;;;;4.88;91.68;99442.13;6193220;23;20029;-81
2022/04/08 04:34:13;;;;;;;18.25;9.90;;;;;;;4.89;91.53;99434.19;6192166;23;20048;-80
2022/04/08 04:36:39;;;;;;;18.67;10.50;;;;;;;4.89;91.91;99441.97;6190957;23;20036;-81
2022/04/08 04:39:06;;;;;;;18.08;10.10;;;;;;;4.81;92.33;99439.31;6191858;23;20021;-81
2022/04/08 04:41:33;;;;;;;17.42;9.88;;;;;;;4.76;91.62;99427.75;6190105;23;20032;-81
2022/04/08 04:44:01;;;;;;;20.73;10.07;;;;;;;4.78;91.64;99433.59;6191723;23;20032;-80
2022/04/08 04:46:28;;;;;;;17.52;10.23;;;;;;;4.69;92.19;99427.56;6192983;23;20017;-81
2022/04/08 04:48:54;;;;;;;14.63;10.23;;;;;;;4.70;91.78;99431.78;6189641;23;20029;-78
2022/04/08 04:51:22;;;;;;;13.57;8.93;;;;;;;4.69;91.24;99426.72;6190267;23;20411;-78
2022/04/08 04:53:49;;;;;;;20.08;10.10;;;;;;;4.68;92.07;99427.69;6189870;23;20063;-79
2022/04/08 04:56:16;;;;;;;15.10;10.48;;;;;;;4.64;91.35;99427.19;6189651;23;20032;-77
2022/04/08 04:58:42;;;;;;;20.17;10.93;;;;;;;4.63;91.68;99434.13;6188860;23;20496;-77
2022/04/08 05:01:09;;;;;;;16.70;10.30;;;;;;;4.61;91.63;99427.47;6188733;23;20692;-78
2022/04/08 05:03:35;;;;;;;17.13;10.25;;;;;;;4.56;92.11;99425.31;6190047;23;20029;-79
2022/04/08 05:06:02;;;;;;;16.17;11.05;;;;;;;4.61;91.70;99430.06;6191259;23;20064;-78
2022/04/08 05:08:30;;;;;;;17.17;10.50;;;;;;;4.56;91.88;99427.09;6189027;23;20052;-79
2022/04/08 05:11:02;;;;;;;20.25;10.95;;;;;;;4.43;91.90;99418.84;6207858;23;20044;-85
2022/04/08 05:13:29;;;;;;;16.63;10.48;;;;;;;4.39;92.34;99417.50;6219188;23;20062;-83
2022/04/08 05:15:58;;;;;;;15.00;9.93;;;;;;;4.52;91.84;99430.94;6218550;23;20021;-84
2022/04/08 05:18:25;;;;;;;16.92;10.40;;;;;;;4.57;91.52;99439.09;6218419;23;20031;-81
2022/04/08 05:20:52;;;;;;;18.35;10.05;;;;;;;4.66;90.48;99425.25;6201590;23;20025;-82
2022/04/08 05:23:18;;;;;;;14.75;9.13;;;;;;;4.72;90.87;99436.81;6187866;23;20032;-83
2022/04/08 05:25:47;;;;;;;14.93;9.10;;;;;;;4.64;91.21;99437.53;6187239;23;20100;-81
2022/04/08 05:28:15;;;;;;;15.65;9.13;;;;;;;4.72;90.88;99445.41;6186293;23;20389;-81
2022/04/08 05:30:42;;;;;;;12.02;8.35;;;;;;;4.76;89.85;99438.94;6187628;23;20095;-81
2022/04/08 05:33:09;;;;;;;12.30;8.98;;;;;;;4.73;90.76;99435.81;6194275;23;20031;-81
2022/04/08 05:35:35;;;;;;;20.85;8.95;;;;;;;4.75;89.91;99431.31;6190970;23;20052;-82
2022/04/08 05:38:02;;;;;;;16.42;8.73;;;;;;;4.80;90.40;99434.25;6191693;23;20044;-82
2022/04/08 05:40:30;;;;;;;13.35;8.43;;;;;;;4.86;90.29;99437.09;6194978;23;20036;-82
2022/04/08 05:42:58;;;;;;;17.50;9.25;;;;;;;4.95;89.20;99438.78;6196152;23;20025;-83
2022/04/08 05:45:25;;;;;;;18.55;9.18;;;;;;;5.07;89.20;99439.38;6197163;23;20127;-82
2022/04/08 05:47:54;;;;;;;16.33;8.30;;;;;;;5.13;89.03;99437.97;6195258;23;20032;-81
2022/04/08 05:50:42;;;;;;;15.25;8.68;;;;;;;5.38;88.03;99444.13;6194949;23;20048;-81
2022/04/08 05:53:45;;;;;;;14.13;8.35;;;;;;;5.45;86.90;99432.19;6191519;23;20054;-83
2022/04/08 05:56:23;;;;;;;10.13;7.82;;;;;;;5.62;87.02;99444.31;6198517;23;20089;-83
2022/04/08 05:58:59;;;;;;;14.48;7.82;;;;;;;5.53;86.60;99433.06;6173039;23;20032;-81
2022/04/08 06:01:41;;;;;;;11.07;7.78;;;;;;;5.81;86.44;99438.06;6201602;23;20048;-82
2022/04/08 06:04:10;;;;;;;13.77;7.20;;;;;;;5.87;85.51;99411.50;6196469;23;20025;-82
2022/04/08 06:06:50;;;;;;;11.65;7.35;;;;;;;6.15;85.99;99428.50;6192177;23;20248;-83
2022/04/08 06:09:36;;;;;;;16.15;9.50;;;;;;;6.38;85.15;99425.34;6188008;23;20013;-83
2022/04/08 06:12:07;;;;;;;13.40;7.32;;;;;;;6.55;84.37;99425.22;6193417;23;20199;-82
2022/04/08 06:14:44;;;;;;;11.27;6.93;;;;;;;6.56;83.37;99413.06;6191603;23;20017;-83
2022/04/08 06:17:10;;;;;;;11.20;6.88;;;;;;;6.88;82.19;99420.88;6187877;23;20100;-83
2022/04/08 06:19:39;;;;;;;7.85;6.63;;;;;;;7.10;80.70;99410.78;6188474;23;20407;-82
2022/04/08 06:22:13;;;;;;;10.63;6.57;;;;;;;7.57;78.34;99432.50;6187955;23;20155;-84
2022/04/08 06:24:40;;;;;;;10.45;5.90;;;;;;;7.62;77.18;99421.59;6187043;23;20019;-84
2022/04/08 06:27:06;;;;;;;10.38;6.00;;;;;;;7.59;76.83;99412.34;6186364;23;20362;-83
2022/04/08 06:29:35;;;;;;;10.30;6.03;;;;;;;7.49;76.48;99411.72;6186221;23;20103;-83
2022/04/08 06:32:04;;;;;;;10.70;6.38;;;;;;;8.24;74.58;99429.53;6185643;23;20104;-84
2022/04/08 06:34:31;;;;;;;9.73;6.20;;;;;;;8.41;73.70;99431.13;6187379;23;20086;-83
2022/04/08 06:36:58;;;;;;;6.95;5.53;;;;;;;8.50;72.85;99422.28;6186089;23;20036;-83
2022/04/08 06:39:24;;;;;;;6.45;5.28;;;;;;;9.07;71.49;99419.25;6185273;23;20100;-86
2022/04/08 06:41:51;;;;;;;8.80;5.32;;;;;;;8.88;71.20;99424.94;6185928;23;20400;-83
2022/04/08 06:44:18;;;;;;;9.35;5.55;;;;;;;8.62;73.35;99422.66;6184340;23;20453;-82
2022/04/08 06:46:44;;;;;;;10.00;5.53;;;;;;;8.54;73.65;99428.75;6187421;23;20129;-83
2022/04/08 06:49:13;;;;;;;9.90;5.90;;;;;;;8.74;72.63;99431.72;6183897;23;20099;-85
2022/04/08 06:51:39;;;;;;;10.15;5.38;;;;;;;8.84;73.13;99427.09;6186606;23;20080;-85
2022/04/08 06:54:06;;;;;;;7.28;5.22;;;;;;;8.83;71.34;99425.47;6190776;23;20536;-85
2022/04/08 06:56:32;;;;;;;9.88;5.47;;;;;;;8.53;72.32;99421.09;6191635;23;20040;-84
2022/04/08 06:58:59;;;;;;;9.20;6.45;;;;;;;8.43;72.42;99420.53;6190598;23;20053;-84
2022/04/08 07:01:26;;;;;;;9.15;5.47;;;;;;;8.78;71.56;99422.56;6190195;23;20069;-85
2022/04/08 07:03:53;;;;;;;9.73;5.47;;;;;;;8.95;71.53;99424.09;6190484;23;20077;-85
2022/04/08 07:06:21;;;;;;;9.15;5.30;;;;;;;9.55;70.19;99417.16;6187549;23;20091;-85
2022/04/08 07:08:47;;;;;;;9.80;5.35;;;;;;;9.40;69.38;99406.72;6185527;23;20064;-83
2022/04/08 07:11:14;;;;;;;11.40;5.65;;;;;;;9.15;70.04;99407.94;6186544;23;20072;-83
2022/04/08 07:13:41;;;;;;;6.60;4.97;;;;;;;9.25;70.49;99404.09;6184185;23;20020;-86
2022/04/08 07:16:08;;;;;;;8.77;5.65;;;;;;;8.84;71.16;99403.63;6186432;23;20381;-83
2022/04/08 07:18:35;;;;;;;11.50;5.32;;;;;;;8.42;72.88;99403.25;6187171;23;20042;-83
2022/04/08 07:21:01;;;;;;;10.75;5.35;;;;;;;8.13;73.91;99391.63;6186645;23;20385;-83
2022/04/08 07:23:29;;;;;;;8.10;5.35;;;;;;;7.71;74.90;99391.16;6185383;23;20100;-84
2022/04/08 07:25:56;;;;;;;8.95;5.68;;;;;;;7.76;74.84;99394.06;6184912;23;20362;-83
2022/04/08 07:28:23;;;;;;;10.77;5.80;;;;;;;7.59;76.17;99393.31;6184315;23;20097;-84
2022/04/08 07:30:51;;;;;;;12.82;5.25;;;;;;;7.35;75.41;99388.97;6184303;23;20076;-82
2022/04/08 07:33:17;;;;;;;12.02;7.70;;;;;;;7.21;76.49;99395.66;6181501;23;20143;-84
2022/04/08 07:35:44;;;;;;;9.57;5.45;;;;;;;7.32;76.58;99392.72;6186857;23;20047;-81
2022/04/08 07:38:11;;;;;;;7.95;5.57;;;;;;;7.35;76.69;99386.38;6186092;23;20025;-82
2022/04/08 07:40:39;;;;;;;8.10;5.75;;;;;;;7.29;76.06;99381.84;6185562;23;20100;-83
2022/04/08 07:43:06;;;;;;;10.77;5.93;;;;;;;7.29;77.47;99389.63;6185805;23;20561;-84
2022/04/08 07:45:32;;;;;;;10.07;6.15;;;;;;;7.47;76.89;99398.06;6185920;23;20088;-82
2022/04/08 07:47:59;;;;;;;13.55;8.05;;;;;;;7.32;76.38;99397.13;6187004;23;20036;-81
2022/04/08 07:50:27;;;;;;;11.35;6.22;;;;;;;7.38;76.12;99385.25;6185749;23;20021;-83
2022/04/08 07:52:54;;;;;;;10.13;6.30;;;;;;;7.44;75.45;99392.38;6186597;23;20099;-83
2022/04/08 07:55:23;;;;;;;9.15;5.90;;;;;;;7.32;76.08;99391.91;6187334;23;20103;-83
2022/04/08 07:57:52;;;;;;;7.00;5.40;;;;;;;7.34;76.06;99395.16;6193887;23;20021;-82
2022/04/08 08:00:21;;;;;;;7.97;5.50;;;;;;;7.28;74.93;99395.81;6189998;23;20116;-83
2022/04/08 08:02:48;;;;;;;10.13;5.80;;;;;;;7.60;74.52;99394.94;6188758;23;20063;-83
2022/04/08 08:05:15;;;;;;;11.43;9.45;;;;;;;7.55;75.26;99392.84;6185985;23;20489;-84
2022/04/08 08:07:53;;;;;;;8.23;6.07;;;;;;;7.74;75.09;99391.63;6189242;23;20025;-82
2022/04/08 08:10:20;;;;;;;11.30;5.43;;;;;;;7.75;73.38;99385.44;6186155;23;20103;-83
2022/04/08 08:12:48;;;;;;;8.10;5.00;;;;;;;7.74;73.30;99388.22;6189579;23;20073;-83
2022/04/08 08:15:16;;;;;;;8.40;5.65;;;;;;;7.80;73.39;99382.34;6186339;23;20081;-83
2022/04/08 08:17:43;;;;;;;8.50;5.30;;;;;;;7.89;73.23;99386.56;6187136;23;20084;-83
2022/04/08 08:20:11;;;;;;;8.25;5.55;;;;;;;8.01;73.12;99377.38;6190070;23;20333;-81
2022/04/08 08:22:37;;;;;;;9.98;5.78;;;;;;;7.71;71.90;99375.53;6188548;23;20106;-84
2022/04/08 08:25:05;;;;;;;9.95;5.20;;;;;;;8.03;71.49;99369.41;6186632;23;20104;-83
2022/04/08 08:27:37;;;;;;;8.77;5.30;;;;;;;8.21;71.50;99375.97;6188506;23;20025;-83
2022/04/08 08:30:10;;;;;;;10.38;5.53;;;;;;;7.96;70.72;99369.28;6197727;23;20019;-82
2022/04/08 08:32:38;;;;;;;13.68;4.85;;;;;;;8.04;69.24;99366.59;6195701;23;20022;-82
2022/04/08 08:35:07;;;;;;;8.18;5.00;;;;;;;8.34;69.61;99366.81;6192471;23;20334;-84
2022/04/08 08:37:34;;;;;;;9.15;4.55;;;;;;;7.92;70.64;99366.19;6191080;23;20036;-83
2022/04/08 08:40:01;;;;;;;7.30;4.75;;;;;;;7.82;69.88;99364.75;6193640;23;20041;-83
2022/04/08 08:42:30;;;;;;;8.57;5.47;;;;;;;7.78;70.12;99360.88;6195481;23;20088;-84
2022/04/08 08:44:57;;;;;;;10.80;4.75;;;;;;;7.98;68.08;99362.09;6194908;23;20031;-84
2022/04/08 08:47:27;;;;;;;8.55;4.63;;;;;;;8.01;68.19;99361.75;6194057;23;20017;-85
2022/04/08 08:49:59;;;;;;;11.48;5.13;;;;;;;8.03;67.54;99353.78;6190193;23;20013;-84
2022/04/08 08:52:25;;;;;;;8.95;4.78;;;;;;;8.05;66.84;99333.53;6190635;23;20029;-83
2022/04/08 08:54:53;;;;;;;8.75;4.50;;;;;;;8.40;66.34;99351.28;6191091;23;20024;-84
2022/04/08 08:57:22;;;;;;;7.97;4.50;;;;;;;8.13;66.00;99321.28;6192478;23;20119;-84
2022/04/08 08:59:52;;;;;;;6.90;4.63;;;;;;;8.06;66.87;99333.38;6190145;23;20097;-83
2022/04/08 09:02:23;;;;;;;9.95;4.22;;;;;;;8.09;66.60;99332.22;6200579;23;20389;-85
2022/04/08 09:04:52;;;;;;;5.95;4.45;;;;;;;7.95;67.65;99326.78;6190653;23;20099;-85
2022/04/08 09:07:25;;;;;;;12.80;5.30;;;;;;;8.11;67.84;99325.84;6189449;23;20027;-85
2022/04/08 09:10:01;;;;;;;7.82;4.78;;;;;;;8.30;67.71;99314.19;6189556;23;20366;-85
2022/04/08 09:12:31;;;;;;;9.10;4.95;;;;;;;8.54;69.20;99326.25;6200685;23;20155;-85
2022/04/08 09:15:00;;;;;;;7.85;5.15;;;;;;;8.29;68.02;99296.94;6203589;23;20029;-83
2022/04/08 09:17:32;;;;;;;12.43;5.10;;;;;;;8.15;67.87;99285.44;6192639;23;20020;-86
2022/04/08 09:20:02;;;;;;;9.13;4.88;;;;;;;8.31;69.00;99306.19;6190747;23;20473;-82
2022/04/08 09:22:32;;;;;;;11.27;4.97;;;;;;;8.40;68.35;99299.16;6187746;23;20021;-84
2022/04/08 09:25:10;;;;;;;9.48;4.90;;;;;;;8.74;66.03;99285.69;6191022;23;20044;-85
2022/04/08 09:27:38;;;;;;;7.63;5.10;;;;;;;8.81;65.99;99281.38;6191715;23;20476;-85
2022/04/08 09:30:07;;;;;;;9.70;5.05;;;;;;;8.89;66.13;99289.13;6191402;23;20036;-84
2022/04/08 09:32:34;;;;;;;8.80;5.70;;;;;;;8.58;66.22;99275.38;6190024;23;20077;-85
2022/04/08 09:35:01;;;;;;;7.35;5.20;;;;;;;8.83;66.33;99274.19;6190735;23;20100;-85
2022/04/08 09:37:28;;;;;;;8.00;5.00;;;;;;;8.82;65.92;99272.56;6190666;23;20100;-85
2022/04/08 09:39:58;;;;;;;10.10;5.40;;;;;;;8.66;66.00;99272.72;6189507;23;20095;-85
2022/04/08 09:42:40;;;;;;;6.57;5.43;;;;;;;8.69;64.52;99261.91;6191851;23;20084;-84
2022/04/08 09:45:09;;;;;;;7.37;4.70;;;;;;;8.85;65.25;99258.34;6193134;23;20075;-84
2022/04/08 09:47:35;;;;;;;10.48;5.10;;;;;;;8.97;64.44;99262.97;6193564;23;20100;-85
2022/04/08 09:50:02;;;;;;;7.63;5.38;;;;;;;8.89;64.15;99252.59;6192514;23;20039;-84
2022/04/08 09:52:30;;;;;;;6.57;4.97;;;;;;;8.64;64.73;99253.81;6192806;23;20063;-85
2022/04/08 09:55:00;;;;;;;10.73;4.85;;;;;;;8.64;65.30;99259.03;6193907;23;20060;-85
2022/04/08 09:57:30;;;;;;;9.15;5.07;;;;;;;8.77;64.68;99269.69;6199502;23;20020;-84
2022/04/08 09:59:59;;;;;;;9.00;5.50;;;;;;;8.58;66.53;99267.56;6195363;23;20024;-85
2022/04/08 10:02:29;;;;;;;10.15;5.35;;;;;;;8.49;66.14;99266.03;6193597;23;20499;-85
2022/04/08 10:04:56;;;;;;;13.27;5.75;;;;;;;8.34;66.87;99268.59;6193112;23;20096;-84
2022/04/08 10:07:23;;;;;;;9.90;5.88;;;;;;;8.68;65.74;99267.31;6190431;23;20056;-85
2022/04/08 10:09:58;;;;;;;10.63;5.93;;;;;;;8.60;67.25;99269.00;6192004;23;20071;-85
2022/04/08 10:12:36;;;;;;;7.32;6.18;;;;;;;8.62;66.42;99266.22;6193493;23;20025;-85
2022/04/08 10:15:08;;;;;;;8.73;6.00;;;;;;;8.54;67.02;99267.09;6193639;23;20029;-86
2022/04/08 10:17:35;;;;;;;9.68;6.97;;;;;;;8.47;67.68;99273.22;6194171;23;20054;-84
2022/04/08 10:20:18;;;;;;;8.45;6.93;;;;;;;8.45;67.72;99277.78;6193745;23;20129;-85
2022/04/08 10:22:45;;;;;;;13.55;6.40;;;;;;;8.57;67.76;99284.19;6193110;23;20047;-85
2022/04/08 10:25:16;;;;;;;11.30;6.90;;;;;;;8.61;66.73;99270.63;6192430;23;20076;-83
2022/04/08 10:27:44;;;;;;;9.10;6.43;;;;;;;8.85;66.78;99284.44;6191799;23;20055;-84
2022/04/08 10:30:13;;;;;;;15.00;6.57;;;;;;;8.93;67.04;99277.34;6191468;23;20017;-85
2022/04/08 10:32:40;;;;;;;11.23;6.78;;;;;;;9.01;67.12;99270.41;6192048;23;20028;-85
2022/04/08 10:35:18;;;;;;;8.77;6.47;;;;;;;9.03;67.94;99271.03;6192452;23;20052;-85
2022/04/08 10:37:55;;;;;;;9.00;6.53;;;;;;;8.96;66.55;99269.16;6192656;23;20036;-84
2022/04/08 10:40:22;;;;;;;10.65;6.63;;;;;;;8.87;68.11;99265.03;6191755;23;20262;-85
2022/04/08 10:42:58;;;;;;;13.45;7.20;;;;;;;9.01;66.64;99258.16;6191965;23;20032;-83
2022/04/08 10:45:25;;;;;;;9.35;7.25;;;;;;;8.72;67.49;99251.13;6192837;23;20033;-84
2022/04/08 10:47:52;;;;;;;11.93;7.63;;;;;;;8.83;68.68;99242.88;6190684;23;20056;-84
2022/04/08 10:50:26;;;;;;;10.25;6.75;;;;;;;8.97;67.32;99249.13;6191998;23;20017;-84
2022/04/08 10:53:04;;;;;;;11.90;7.43;;;;;;;8.80;66.77;99235.41;6194568;23;20132;-84
2022/04/08 10:55:31;;;;;;;10.70;6.68;;;;;;;8.88;66.99;99229.31;6194212;23;20056;-84
2022/04/08 10:58:00;;;;;;;11.95;7.18;;;;;;;8.98;66.49;99214.19;6192872;23;20450;-84
2022/04/08 11:00:29;;;;;;;9.85;6.65;;;;;;;8.93;67.26;99212.13;6193039;23;20068;-84
2022/04/08 11:02:56;;;;;;;13.30;6.97;;;;;;;9.16;65.96;99198.16;6194108;23;20073;-84
2022/04/08 11:05:23;;;;;;;14.00;8.00;;;;;;;8.94;67.29;99190.28;6191450;23;20493;-84
2022/04/08 11:07:51;;;;;;;11.60;6.65;;;;;;;8.93;67.07;99185.22;6190940;23;20044;-83
2022/04/08 11:10:22;;;;;;;11.10;6.95;;;;;;;8.94;66.23;99165.97;6192964;23;20016;-79
2022/04/08 11:12:51;;;;;;;12.27;6.90;;;;;;;9.07;65.47;99150.47;6188647;23;20028;-79
2022/04/08 11:15:20;;;;;;;9.93;6.75;;;;;;;9.18;66.28;99173.50;6187882;23;20025;-79
2022/04/08 11:17:48;;;;;;;10.85;6.60;;;;;;;9.24;66.27;99157.13;6187492;23;20441;-79
2022/04/08 11:20:17;;;;;;;9.52;6.68;;;;;;;9.28;65.94;99163.59;6187648;23;20489;-79
2022/04/08 11:22:45;;;;;;;10.13;6.40;;;;;;;9.25;65.48;99158.72;6188181;23;20406;-79
2022/04/08 11:25:20;;;;;;;12.50;6.55;;;;;;;9.35;65.28;99153.22;6185032;23;20021;-78
2022/04/08 11:27:57;;;;;;;9.25;6.60;;;;;;;9.10;65.69;99159.75;6187497;23;20059;-79
2022/04/08 11:30:25;;;;;;;10.88;7.43;;;;;;;9.24;65.40;99162.34;6187293;23;20048;-79
2022/04/08 11:32:52;;;;;;;10.52;6.68;;;;;;;9.34;65.99;99156.81;6187661;23;20025;-79
2022/04/08 11:35:19;;;;;;;11.80;6.70;;;;;;;9.40;65.50;99153.50;6188177;23;20036;-79
2022/04/08 11:38:00;;;;;;;;;;;;;;;;;;;;;
2022/04/08 11:40:27;;;;;;;13.05;7.28;;;;;;;9.56;65.63;99134.16;6189752;23;20443;-79
2022/04/08 11:42:59;;;;;;;10.93;7.28;;;;;;;9.77;65.01;99135.97;6191017;23;20021;-78